Time;durP1;ratioP1;P1;durP2;ratioP2;P2;SDS_P1;SDS_P2;PMS_P1;PMS_P2;Temp;Humidity;BMP_temperature;BMP_pressure;BME280_temperature;BME280_humidity;BME280_pressure;Samples;Min_cycle;Max_cycle;Signal;HPM_P1;HPM_P2
2022/07/01 00:00:09;;;;;;;15.23;13.80;;;24.00;1.00;;;;;;5036212;28;20250;-59
2022/07/01 00:02:34;;;;;;;14.23;12.93;;;23.90;1.00;;;;;;5028890;28;20199;-59
2022/07/01 00:05:00;;;;;;;17.37;13.30;;;23.90;1.00;;;;;;5027229;28;20447;-60
2022/07/01 00:07:26;;;;;;;14.43;13.10;;;23.90;1.00;;;;;;5032156;28;20192;-60
2022/07/01 00:09:54;;;;;;;15.17;13.27;;;23.90;1.00;;;;;;5027387;28;20223;-59
2022/07/01 00:12:20;;;;;;;16.63;13.83;;;23.80;1.00;;;;;;5028281;28;20303;-59
2022/07/01 00:14:45;;;;;;;15.83;14.23;;;23.70;1.00;;;;;;5026333;28;20539;-59
2022/07/01 00:17:11;;;;;;;18.87;14.30;;;;;;;;;;5028622;28;20250;-59
2022/07/01 00:19:37;;;;;;;15.17;13.87;;;23.60;1.00;;;;;;5027987;28;20260;-59
2022/07/01 00:22:03;;;;;;;14.50;13.20;;;23.70;1.00;;;;;;5028926;28;20532;-59
2022/07/01 00:24:28;;;;;;;15.87;14.47;;;23.60;1.00;;;;;;5025828;28;20189;-60
2022/07/01 00:26:54;;;;;;;15.83;14.37;;;23.70;1.00;;;;;;5028047;28;20263;-60
2022/07/01 00:29:20;;;;;;;15.33;13.83;;;23.60;1.00;;;;;;5030574;28;20201;-60
2022/07/01 00:31:45;;;;;;;16.00;14.43;;;23.60;1.00;;;;;;5028048;28;20712;-59
2022/07/01 00:34:11;;;;;;;15.77;14.17;;;23.60;1.00;;;;;;5028378;28;20211;-59
2022/07/01 00:36:36;;;;;;;14.80;13.37;;;23.60;1.00;;;;;;5033739;28;20278;-59
2022/07/01 00:39:02;;;;;;;15.70;14.37;;;23.60;1.00;;;;;;5031078;28;20184;-59
2022/07/01 00:41:29;;;;;;;14.30;12.90;;;23.50;1.00;;;;;;5027264;28;20188;-59
2022/07/01 00:43:55;;;;;;;15.27;13.77;;;23.50;1.00;;;;;;5050133;28;20442;-59
2022/07/01 00:46:21;;;;;;;15.63;14.10;;;23.50;1.00;;;;;;5039782;28;20533;-60
2022/07/01 00:48:47;;;;;;;14.60;13.20;;;23.60;1.00;;;;;;5028046;28;21050;-59
2022/07/01 00:51:13;;;;;;;15.10;13.70;;;23.50;1.00;;;;;;5026118;28;20467;-59
2022/07/01 00:53:40;;;;;;;14.90;13.60;;;23.60;1.00;;;;;;5048587;28;20257;-59
2022/07/01 00:56:15;;;;;;;14.47;12.90;;;23.70;1.00;;;;;;5043234;28;20960;-59
2022/07/01 00:58:41;;;;;;;14.63;13.40;;;23.60;1.00;;;;;;5029817;28;20476;-60
2022/07/01 01:01:17;;;;;;;14.97;13.57;;;23.50;1.00;;;;;;5028033;28;20817;-59
2022/07/01 01:03:43;;;;;;;14.33;12.90;;;23.50;1.00;;;;;;5029637;28;20650;-58
2022/07/01 01:06:12;;;;;;;14.77;13.30;;;23.40;1.00;;;;;;5026811;28;20447;-59
2022/07/01 01:08:37;;;;;;;16.50;14.80;;;23.40;1.00;;;;;;5025851;28;20192;-59
2022/07/01 01:11:11;;;;;;;14.97;13.37;;;23.30;1.00;;;;;;5028795;28;20471;-59
2022/07/01 01:13:37;;;;;;;14.63;13.13;;;23.10;1.00;;;;;;5024285;28;20494;-60
2022/07/01 01:16:03;;;;;;;15.47;13.97;;;23.10;1.00;;;;;;5029666;28;20463;-59
2022/07/01 01:18:28;;;;;;;15.43;13.93;;;23.00;1.00;;;;;;5024776;28;20409;-59
2022/07/01 01:20:54;;;;;;;16.63;14.90;;;23.00;1.00;;;;;;5020532;28;20193;-59
2022/07/01 01:23:20;;;;;;;15.60;14.20;;;23.00;1.00;;;;;;5022780;28;20200;-60
2022/07/01 01:25:47;;;;;;;14.63;12.87;;;22.90;1.00;;;;;;5027676;28;20191;-58
2022/07/01 01:28:13;;;;;;;16.47;14.97;;;22.80;1.00;;;;;;5026397;28;20217;-60
2022/07/01 01:30:38;;;;;;;16.07;14.40;;;22.80;1.00;;;;;;5027788;28;20975;-59
2022/07/01 01:33:04;;;;;;;14.60;13.30;;;22.80;1.00;;;;;;5027286;28;20207;-60
2022/07/01 01:35:31;;;;;;;14.90;13.60;;;22.80;1.00;;;;;;5027207;28;20189;-59
2022/07/01 01:37:57;;;;;;;16.67;15.07;;;22.80;1.00;;;;;;5027705;28;20259;-60
2022/07/01 01:40:22;;;;;;;15.33;13.80;;;22.70;1.00;;;;;;5022027;28;20429;-59
2022/07/01 01:42:48;;;;;;;16.70;14.60;;;22.90;1.00;;;;;;5027436;28;20359;-58
2022/07/01 01:45:14;;;;;;;15.00;13.50;;;22.80;1.00;;;;;;5027678;28;20181;-59
2022/07/01 01:47:40;;;;;;;16.23;14.60;;;22.80;1.00;;;;;;5032249;28;20263;-59
2022/07/01 01:50:08;;;;;;;15.43;13.93;;;22.80;1.00;;;;;;5031841;28;20555;-59
2022/07/01 01:52:33;;;;;;;16.07;14.47;;;22.90;1.00;;;;;;5032093;28;21014;-58
2022/07/01 01:55:00;;;;;;;15.33;13.83;;;22.90;1.00;;;;;;5031316;28;20479;-58
2022/07/01 01:57:25;;;;;;;14.87;13.57;;;22.80;1.00;;;;;;5032809;28;20196;-58
2022/07/01 01:59:51;;;;;;;15.97;14.37;;;22.80;1.00;;;;;;5030644;28;20858;-59
2022/07/01 02:02:16;;;;;;;16.37;14.67;;;22.80;1.00;;;;;;5025073;28;20666;-58
2022/07/01 02:04:42;;;;;;;16.27;14.87;;;22.70;1.00;;;;;;5021077;28;20197;-58
2022/07/01 02:07:08;;;;;;;16.07;14.53;;;22.70;1.00;;;;;;5023101;28;20200;-59
2022/07/01 02:09:33;;;;;;;16.53;15.03;;;22.60;1.00;;;;;;5026972;28;20283;-58
2022/07/01 02:11:59;;;;;;;15.50;13.90;;;22.70;1.00;;;;;;5027962;28;20246;-59
2022/07/01 02:14:25;;;;;;;18.10;14.10;;;22.60;1.00;;;;;;5026840;28;20199;-58
2022/07/01 02:16:50;;;;;;;14.77;13.27;;;22.60;1.00;;;;;;5029062;28;20258;-59
2022/07/01 02:19:16;;;;;;;15.70;14.03;;;22.60;1.00;;;;;;5024615;28;20192;-59
2022/07/01 02:21:41;;;;;;;19.10;14.93;;;22.60;1.00;;;;;;5027915;28;20193;-59
2022/07/01 02:24:07;;;;;;;14.90;13.30;;;22.70;1.00;;;;;;5029950;28;20261;-58
2022/07/01 02:26:33;;;;;;;15.70;14.07;;;22.70;1.00;;;;;;5034530;28;20193;-59
2022/07/01 02:28:58;;;;;;;16.27;13.90;;;22.60;1.00;;;;;;5025861;28;20479;-59
2022/07/01 02:31:24;;;;;;;14.87;13.37;;;22.70;1.00;;;;;;5028568;28;20232;-59
2022/07/01 02:33:50;;;;;;;16.70;13.73;;;22.70;1.00;;;;;;5029349;28;20219;-60
2022/07/01 02:36:15;;;;;;;14.50;13.20;;;22.70;1.00;;;;;;5028275;28;20185;-59
2022/07/01 02:38:41;;;;;;;14.43;13.13;;;22.60;1.00;;;;;;5028389;28;20181;-59
2022/07/01 02:41:09;;;;;;;15.00;13.60;;;22.50;1.00;;;;;;5028316;28;20217;-59
2022/07/01 02:43:36;;;;;;;15.63;13.90;;;22.50;1.00;;;;;;5024346;28;20189;-59
2022/07/01 02:46:02;;;;;;;15.53;12.83;;;22.40;1.00;;;;;;5030099;28;20451;-59
2022/07/01 02:48:27;;;;;;;15.30;13.70;;;22.40;1.00;;;;;;5031868;28;20581;-59
2022/07/01 02:50:53;;;;;;;15.50;14.00;;;22.40;1.00;;;;;;5027091;28;20193;-59
2022/07/01 02:53:19;;;;;;;15.60;14.00;;;22.30;1.00;;;;;;5022746;28;20221;-59
2022/07/01 02:55:44;;;;;;;15.07;12.93;;;22.40;1.00;;;;;;5026182;28;20177;-59
2022/07/01 02:58:10;;;;;;;15.27;13.50;;;22.40;1.00;;;;;;5026737;28;20212;-60
2022/07/01 03:00:36;;;;;;;16.20;13.40;;;22.40;1.00;;;;;;5025964;28;20176;-59
2022/07/01 03:03:02;;;;;;;14.60;13.20;;;22.40;1.00;;;;;;5028345;28;20189;-58
2022/07/01 03:05:28;;;;;;;16.27;14.33;;;22.50;1.00;;;;;;5024436;28;20436;-59
2022/07/01 03:07:54;;;;;;;15.87;14.47;;;22.30;1.00;;;;;;5028484;28;20525;-58
2022/07/01 03:10:20;;;;;;;15.60;13.93;;;22.40;1.00;;;;;;5026454;28;20262;-59
2022/07/01 03:12:45;;;;;;;15.33;13.87;;;22.50;1.00;;;;;;5027688;28;20876;-58
2022/07/01 03:15:13;;;;;;;15.13;13.63;;;22.50;1.00;;;;;;5028689;28;20647;-59
2022/07/01 03:17:41;;;;;;;14.80;13.20;;;22.50;1.00;;;;;;5028967;28;20267;-59
2022/07/01 03:20:09;;;;;;;14.70;13.20;;;22.50;1.00;;;;;;5024650;28;20455;-59
2022/07/01 03:22:35;;;;;;;15.30;13.80;;;22.60;1.00;;;;;;5028316;28;20964;-58
2022/07/01 03:25:02;;;;;;;15.00;13.40;;;22.50;1.00;;;;;;5022480;28;20599;-58
2022/07/01 03:27:29;;;;;;;15.33;13.73;;;22.50;1.00;;;;;;5025526;28;20479;-59
2022/07/01 03:29:55;;;;;;;15.07;13.33;;;22.50;1.00;;;;;;5024498;28;20505;-58
2022/07/01 03:32:21;;;;;;;15.93;13.07;;;22.50;1.00;;;;;;5030166;28;20467;-59
2022/07/01 03:34:48;;;;;;;14.43;13.00;;;22.50;1.00;;;;;;5026095;28;20448;-58
2022/07/01 03:37:16;;;;;;;14.13;12.83;;;22.80;1.00;;;;;;5030154;28;20915;-59
2022/07/01 03:39:42;;;;;;;14.80;13.30;;;23.00;1.00;;;;;;5026066;28;20454;-59
2022/07/01 03:42:09;;;;;;;13.90;12.60;;;23.20;1.00;;;;;;5027352;28;20509;-59
2022/07/01 03:44:35;;;;;;;14.00;12.60;;;23.40;1.00;;;;;;5026553;28;20840;-59
2022/07/01 03:47:01;;;;;;;14.17;12.87;;;23.60;1.00;;;;;;5026226;28;20936;-59
2022/07/01 03:49:27;;;;;;;12.97;11.77;;;23.90;1.00;;;;;;5029669;28;20486;-60
2022/07/01 03:51:53;;;;;;;13.00;11.60;;;24.10;1.00;;;;;;5027093;28;20952;-60
2022/07/01 03:54:32;;;;;;;14.60;12.97;;;24.40;1.00;;;;;;5029554;28;20487;-60
2022/07/01 03:56:59;;;;;;;13.63;12.33;;;24.60;1.00;;;;;;5027856;28;20177;-59
2022/07/01 03:59:26;;;;;;;17.33;12.83;;;24.70;1.00;;;;;;5029844;28;20522;-59
2022/07/01 04:01:53;;;;;;;14.90;12.60;;;24.60;1.00;;;;;;5028807;28;20969;-59
2022/07/01 04:04:19;;;;;;;13.60;12.30;;;24.60;1.00;;;;;;5027940;28;20459;-59
2022/07/01 04:06:46;;;;;;;13.50;12.30;;;24.50;1.00;;;;;;5028571;28;20499;-60
2022/07/01 04:09:14;;;;;;;14.23;12.70;;;24.50;1.00;;;;;;5026719;28;20292;-59
2022/07/01 04:11:41;;;;;;;17.00;12.23;;;24.40;1.00;;;;;;5029979;28;20465;-59
2022/07/01 04:14:07;;;;;;;14.27;12.83;;;24.50;1.00;;;;;;5030361;28;20524;-61
2022/07/01 04:16:33;;;;;;;13.63;12.33;;;24.50;1.00;;;;;;5028935;28;20530;-61
2022/07/01 04:18:58;;;;;;;13.93;12.63;;;24.50;1.00;;;;;;5028352;28;20546;-62
2022/07/01 04:24:08;;;;;;;13.13;11.53;;;24.50;1.00;;;;;;5032573;28;20203;-60
2022/07/01 04:26:34;;;;;;;13.57;12.17;;;24.60;1.00;;;;;;5036260;28;20451;-60
2022/07/01 04:29:00;;;;;;;16.43;11.57;;;24.40;1.00;;;;;;5030460;28;20203;-60
2022/07/01 04:31:26;;;;;;;15.03;12.30;;;24.40;1.00;;;;;;5030807;28;20471;-61
2022/07/01 04:33:51;;;;;;;13.77;12.50;;;24.40;1.00;;;;;;5028145;28;20203;-61
2022/07/01 04:36:23;;;;;;;14.77;12.87;;;24.30;1.00;;;;;;5029073;28;20181;-60
2022/07/01 04:38:49;;;;;;;16.27;14.77;;;24.20;1.00;;;;;;5028509;28;20195;-61
2022/07/01 04:44:11;;;;;;;17.23;12.10;;;24.00;1.00;;;;;;5028945;28;20481;-61
2022/07/01 04:46:37;;;;;;;19.10;12.10;;;24.00;1.00;;;;;;5030038;28;20451;-58
2022/07/01 04:49:03;;;;;;;14.80;12.93;;;24.10;1.00;;;;;;5029089;28;20185;-59
2022/07/01 04:51:28;;;;;;;12.43;11.33;;;24.10;1.00;;;;;;5029726;28;20204;-58
2022/07/01 04:53:54;;;;;;;13.10;11.80;;;24.10;1.00;;;;;;5027126;28;20462;-58
2022/07/01 04:56:21;;;;;;;13.87;11.30;;;24.20;1.00;;;;;;5029120;28;20217;-58
2022/07/01 04:58:46;;;;;;;12.97;11.77;;;24.30;1.00;;;;;;5029838;28;20180;-58
2022/07/01 05:01:24;;;;;;;12.97;11.57;;;24.40;1.00;;;;;;5029050;28;20455;-58
2022/07/01 05:03:50;;;;;;;12.43;11.30;;;24.50;1.00;;;;;;5028220;28;20185;-59
2022/07/01 05:06:22;;;;;;;12.07;10.80;;;24.70;1.00;;;;;;5027676;28;20974;-58
2022/07/01 05:08:48;;;;;;;12.43;11.20;;;25.00;1.00;;;;;;5029874;28;20276;-58
2022/07/01 05:11:22;;;;;;;16.77;12.03;;;25.10;1.00;;;;;;5029757;28;20558;-59
2022/07/01 05:13:48;;;;;;;13.30;11.63;;;25.10;1.00;;;;;;5029788;28;20242;-58
2022/07/01 05:16:26;;;;;;;10.67;9.70;;;25.10;1.00;;;;;;5029950;28;20451;-59
2022/07/01 05:24:20;;;;;;;10.50;9.50;;;25.70;1.00;;;;;;5030025;28;20438;-58
2022/07/01 05:26:46;;;;;;;11.53;10.53;;;25.90;1.00;;;;;;5031519;28;20447;-59
2022/07/01 05:29:11;;;;;;;11.20;10.10;;;25.90;1.00;;;;;;5033280;28;20199;-58
2022/07/01 05:31:37;;;;;;;12.53;11.23;;;25.90;1.00;;;;;;5034405;28;20383;-59
2022/07/01 05:34:03;;;;;;;11.20;9.87;;;25.90;1.00;;;;;;5033594;28;20207;-58
2022/07/01 05:36:28;;;;;;;17.33;10.27;;;25.90;1.00;;;;;;5037984;28;20687;-59
2022/07/01 05:38:54;;;;;;;10.87;9.77;;;25.70;1.00;;;;;;5045114;28;20180;-59
2022/07/01 05:41:19;;;;;;;11.50;10.43;;;25.80;1.00;;;;;;5033516;28;20181;-58
2022/07/01 05:43:45;;;;;;;14.03;11.13;;;25.50;1.00;;;;;;5034077;28;20187;-59
2022/07/01 05:46:26;;;;;;;10.63;9.73;;;25.30;1.00;;;;;;5049907;28;20208;-60
2022/07/01 05:48:52;;;;;;;15.83;10.33;;;25.10;1.00;;;;;;5052955;28;20370;-59
2022/07/01 05:51:25;;;;;;;11.60;10.57;;;25.00;1.00;;;;;;5033765;28;21056;-58
2022/07/01 05:53:51;;;;;;;13.30;10.80;;;24.90;1.00;;;;;;5033155;28;20192;-59
2022/07/01 05:56:20;;;;;;;13.83;11.00;;;25.00;1.00;;;;;;5034408;28;20439;-58
2022/07/01 05:58:45;;;;;;;14.70;10.43;;;25.10;1.00;;;;;;5053005;28;20263;-59
2022/07/01 06:01:17;;;;;;;11.13;10.13;;;25.30;1.00;;;;;;5052586;28;20959;-58
2022/07/01 06:03:43;;;;;;;11.97;10.87;;;25.60;1.00;;;;;;5052941;28;20263;-59
2022/07/01 06:06:19;;;;;;;11.73;10.53;;;25.70;1.00;;;;;;5039306;28;20547;-59
2022/07/01 06:08:45;;;;;;;12.77;10.50;;;25.80;1.00;;;;;;5032918;28;20192;-60
2022/07/01 06:11:21;;;;;;;12.30;10.80;;;25.80;1.00;;;;;;5036176;28;20948;-59
2022/07/01 06:13:46;;;;;;;14.07;10.90;;;25.80;1.00;;;;;;5032894;28;20650;-59
2022/07/01 06:16:30;;;;;;;17.23;14.90;;;25.40;1.00;;;;;;5032709;28;20450;-59
2022/07/01 06:18:55;;;;;;;16.37;14.77;;;25.00;1.00;;;;;;5035358;28;20275;-60
2022/07/01 06:21:25;;;;;;;16.03;14.50;;;24.80;1.00;;;;;;5033482;28;20538;-59
2022/07/01 06:23:50;;;;;;;14.10;12.80;;;24.60;1.00;;;;;;5052531;28;21074;-60
2022/07/01 06:26:19;;;;;;;15.17;13.67;;;24.50;1.00;;;;;;5050568;28;20446;-59
2022/07/01 06:28:44;;;;;;;13.83;12.33;;;24.50;1.00;;;;;;5032240;28;20606;-60
2022/07/01 06:31:27;;;;;;;14.80;13.43;;;24.50;1.00;;;;;;5030973;28;20501;-60
2022/07/01 06:33:53;;;;;;;13.33;12.10;;;24.70;1.00;;;;;;5032235;28;20189;-61
2022/07/01 06:36:18;;;;;;;13.30;12.00;;;25.10;1.00;;;;;;5033562;28;20454;-59
2022/07/01 06:38:44;;;;;;;13.60;11.43;;;25.30;1.00;;;;;;5031278;28;20177;-59
2022/07/01 06:41:28;;;;;;;13.70;12.30;;;25.40;1.00;;;;;;5032525;28;20272;-60
2022/07/01 06:44:01;;;;;;;17.40;13.13;;;25.70;1.00;;;;;;5032385;28;20195;-60
2022/07/01 06:46:29;;;;;;;14.57;13.37;;;25.70;1.00;;;;;;5032020;28;20447;-58
2022/07/01 06:48:55;;;;;;;13.80;12.53;;;25.50;1.00;;;;;;5032075;28;20935;-59
2022/07/01 06:51:25;;;;;;;13.63;12.40;;;25.40;1.00;;;;;;5032158;28;20989;-59
2022/07/01 06:53:51;;;;;;;13.03;11.70;;;25.50;1.00;;;;;;5041575;28;20518;-60
2022/07/01 06:56:20;;;;;;;15.37;13.93;;;25.60;1.00;;;;;;5045201;28;20450;-60
2022/07/01 06:58:46;;;;;;;15.57;13.90;;;25.60;1.00;;;;;;5031478;28;20436;-59
2022/07/01 07:01:24;;;;;;;17.23;15.63;;;25.30;1.00;;;;;;5031934;28;20550;-60
2022/07/01 07:03:50;;;;;;;17.80;16.10;;;25.20;1.00;;;;;;5039425;28;20180;-60
2022/07/01 07:06:29;;;;;;;17.17;15.37;;;25.20;1.00;;;;;;5051472;28;20460;-59
2022/07/01 07:08:54;;;;;;;18.07;16.37;;;25.00;1.00;;;;;;5032193;28;20183;-61
2022/07/01 07:11:20;;;;;;;16.40;14.77;;;25.10;1.00;;;;;;5036448;28;20462;-60
2022/07/01 07:13:45;;;;;;;17.00;15.33;;;25.10;1.00;;;;;;5044831;28;20798;-60
2022/07/01 07:16:11;;;;;;;20.20;16.60;;;25.10;1.00;;;;;;5030983;28;20189;-60
2022/07/01 07:18:37;;;;;;;18.13;16.40;;;25.20;1.00;;;;;;5031407;28;20259;-59
2022/07/01 07:21:03;;;;;;;17.60;15.90;;;25.00;1.00;;;;;;5031230;28;20285;-59
2022/07/01 07:23:29;;;;;;;23.20;16.90;;;25.00;1.00;;;;;;5025974;28;20189;-60
2022/07/01 07:25:55;;;;;;;18.47;16.77;;;24.70;1.00;;;;;;5031196;28;20444;-60
2022/07/01 07:28:20;;;;;;;18.40;16.10;;;24.60;1.00;;;;;;5031471;28;20551;-60
2022/07/01 07:30:46;;;;;;;17.73;15.13;;;24.50;1.00;;;;;;5031763;28;20192;-59
2022/07/01 07:33:12;;;;;;;17.07;15.47;;;24.40;1.00;;;;;;5031371;28;20615;-60
2022/07/01 07:35:37;;;;;;;18.60;16.80;;;24.40;1.00;;;;;;5031601;28;20184;-60
2022/07/01 07:38:03;;;;;;;17.13;15.53;;;24.50;1.00;;;;;;5030819;28;20251;-60
2022/07/01 07:40:28;;;;;;;16.87;15.23;;;24.30;1.00;;;;;;5031071;28;20185;-60
2022/07/01 07:42:54;;;;;;;20.80;16.30;;;24.20;1.00;;;;;;5031105;28;20200;-59
2022/07/01 07:45:20;;;;;;;16.47;14.77;;;24.10;1.00;;;;;;5030862;28;20193;-59
2022/07/01 07:47:51;;;;;;;17.23;15.67;;;23.90;1.00;;;;;;5031190;28;20192;-60
2022/07/01 07:50:17;;;;;;;18.40;16.60;;;23.90;1.00;;;;;;5030724;28;20227;-60
2022/07/01 07:52:43;;;;;;;19.53;17.37;;;23.80;1.00;;;;;;5036881;28;20474;-59
2022/07/01 07:55:09;;;;;;;17.80;15.70;;;23.80;1.00;;;;;;5030493;28;20928;-60
2022/07/01 07:57:39;;;;;;;18.27;16.10;;;23.90;1.00;;;;;;5031116;28;20471;-63
2022/07/01 08:00:07;;;;;;;21.07;18.90;;;23.90;1.00;;;;;;5030877;28;20458;-59
2022/07/01 08:02:32;;;;;;;20.07;17.97;;;23.50;1.00;;;;;;5047245;28;21191;-60
2022/07/01 08:05:00;;;;;;;20.17;18.20;;;23.50;1.00;;;;;;5036435;28;20451;-61
2022/07/01 08:07:26;;;;;;;19.93;17.90;;;23.50;1.00;;;;;;5030679;28;20185;-59
2022/07/01 08:09:52;;;;;;;20.53;17.60;;;23.40;1.00;;;;;;5030562;28;20451;-60
2022/07/01 08:12:18;;;;;;;18.37;15.93;;;23.40;1.00;;;;;;5030544;28;20208;-60
2022/07/01 08:14:43;;;;;;;18.93;14.43;;;23.50;1.00;;;;;;5030741;28;20180;-60
2022/07/01 08:17:09;;;;;;;17.77;14.83;;;23.40;1.00;;;;;;5030726;28;20546;-58
2022/07/01 08:19:35;;;;;;;19.70;16.50;;;23.30;1.00;;;;;;5029103;28;20177;-60
2022/07/01 08:22:01;;;;;;;24.40;16.40;;;23.30;1.00;;;;;;5032910;28;20666;-59
2022/07/01 08:24:26;;;;;;;21.53;17.07;;;23.40;1.00;;;;;;5029017;28;20192;-60
2022/07/01 08:26:52;;;;;;;17.70;16.00;;;23.20;1.00;;;;;;5033979;28;20212;-59
2022/07/01 08:29:18;;;;;;;17.37;15.67;;;23.10;1.00;;;;;;5050156;28;20199;-60
2022/07/01 08:31:43;;;;;;;17.00;15.20;;;23.10;1.00;;;;;;5049994;28;20212;-60
2022/07/01 08:34:11;;;;;;;17.30;15.60;;;23.30;1.00;;;;;;5050189;28;20184;-59
2022/07/01 08:36:37;;;;;;;18.87;16.77;;;23.50;1.00;;;;;;5049876;28;20188;-58
2022/07/01 08:39:03;;;;;;;20.37;17.50;;;23.50;1.00;;;;;;5049996;28;20939;-59
2022/07/01 08:41:32;;;;;;;19.83;15.63;;;23.40;1.00;;;;;;5050124;28;20180;-58
2022/07/01 08:43:58;;;;;;;18.07;16.27;;;23.40;1.00;;;;;;5037999;28;20443;-60
2022/07/01 08:46:26;;;;;;;25.80;16.63;;;23.40;1.00;;;;;;5030028;28;20496;-59
2022/07/01 08:48:51;;;;;;;20.10;16.70;;;23.40;1.00;;;;;;5030078;28;20195;-59
2022/07/01 08:51:20;;;;;;;20.37;17.03;;;23.40;1.00;;;;;;5029997;28;20802;-59
2022/07/01 08:53:46;;;;;;;18.27;16.37;;;23.70;1.00;;;;;;5029895;28;20176;-60
2022/07/01 08:59:05;;;;;;;16.73;13.90;;;23.80;1.00;;;;;;5030079;28;20239;-60
2022/07/01 09:01:31;;;;;;;15.27;13.77;;;23.80;1.00;;;;;;5031496;28;20526;-59
2022/07/01 09:04:18;;;;;;;17.50;15.70;;;23.60;1.00;;;;;;5034732;28;20522;-59
2022/07/01 09:06:46;;;;;;;16.70;14.60;;;23.70;1.00;;;;;;5053880;28;20442;-60
2022/07/01 09:09:13;;;;;;;17.57;15.87;;;23.30;1.00;;;;;;5041628;28;20749;-59
2022/07/01 09:11:45;;;;;;;16.43;14.83;;;22.90;1.00;;;;;;5034153;28;21012;-60
2022/07/01 09:14:12;;;;;;;18.70;15.27;;;22.70;1.00;;;;;;5053615;28;20442;-60
2022/07/01 09:16:44;;;;;;;17.63;15.83;;;22.60;1.00;;;;;;5053605;28;20470;-60
2022/07/01 09:19:13;;;;;;;20.40;15.70;;;22.60;1.00;;;;;;5053809;28;20446;-60
2022/07/01 09:21:39;;;;;;;17.80;15.70;;;22.70;1.00;;;;;;5053636;28;20497;-59
2022/07/01 09:24:29;;;;;;;20.53;15.10;;;22.70;1.00;;;;;;5043812;28;21363;-60
2022/07/01 09:26:58;;;;;;;17.10;15.40;;;22.60;1.00;;;;;;5033492;28;20645;-59
2022/07/01 09:29:31;;;;;;;18.47;15.80;;;22.40;1.00;;;;;;5033820;28;20798;-60
2022/07/01 09:31:58;;;;;;;16.00;14.30;;;22.20;1.00;;;;;;5033527;28;20471;-61
2022/07/01 09:34:24;;;;;;;18.43;15.77;;;22.20;1.00;;;;;;5033548;28;20440;-59
2022/07/01 09:36:55;;;;;;;20.00;17.20;;;22.20;1.00;;;;;;5033640;28;20410;-60
2022/07/01 09:39:21;;;;;;;18.90;17.00;;;22.20;1.00;;;;;;5033604;28;20235;-60
2022/07/01 09:41:47;;;;;;;20.67;15.63;;;21.90;1.00;;;;;;5033298;28;20531;-59
2022/07/01 09:44:13;;;;;;;19.40;17.23;;;21.70;1.00;;;;;;5031755;28;20538;-60
2022/07/01 09:46:52;;;;;;;19.17;17.17;;;21.50;1.00;;;;;;5033280;28;20216;-60
2022/07/01 09:49:18;;;;;;;20.50;16.37;;;21.30;1.00;;;;;;5034529;28;20216;-59
2022/07/01 09:51:44;;;;;;;18.17;15.90;;;21.10;1.00;;;;;;5033180;28;20478;-60
2022/07/01 09:54:12;;;;;;;18.33;15.30;;;21.00;1.00;;;;;;5033028;28;20454;-60
2022/07/01 09:56:38;;;;;;;15.90;14.30;;;20.90;1.00;;;;;;5033078;28;20497;-59
2022/07/01 09:59:04;;;;;;;17.07;15.17;;;21.20;1.00;;;;;;5043881;28;20533;-58
2022/07/01 10:01:39;;;;;;;17.00;15.30;;;21.40;1.00;;;;;;5052984;28;20172;-60
2022/07/01 10:04:08;;;;;;;17.43;15.40;;;21.40;1.00;;;;;;5052692;28;20412;-59
2022/07/01 10:07:06;;;;;;;15.43;13.83;;;21.50;1.00;;;;;;5052950;28;20438;-60
2022/07/01 10:10:08;;;;;;;13.77;12.50;;;22.00;1.00;;;;;;5033438;28;20421;-59
2022/07/01 10:12:38;;;;;;;14.80;13.20;;;22.30;1.00;;;;;;5051803;28;20466;-61
2022/07/01 10:15:07;;;;;;;15.03;13.73;;;22.70;1.00;;;;;;5052771;28;20438;-61
2022/07/01 10:17:43;;;;;;;14.20;12.90;;;22.60;1.00;;;;;;5052756;28;20464;-60
2022/07/01 10:20:13;;;;;;;13.63;12.33;;;22.70;1.00;;;;;;5052518;28;20474;-61
2022/07/01 10:22:40;;;;;;;14.63;13.20;;;22.30;1.00;;;;;;5052315;28;20447;-60
2022/07/01 10:25:35;;;;;;;12.90;11.70;;;22.40;1.00;;;;;;5036696;28;20451;-60
2022/07/01 10:28:19;;;;;;;12.77;11.67;;;22.70;1.00;;;;;;5032704;28;20856;-60
2022/07/01 10:31:03;;;;;;;13.33;12.10;;;22.70;1.00;;;;;;5032683;28;20801;-59
2022/07/01 10:33:42;;;;;;;14.17;12.87;;;22.80;1.00;;;;;;5032142;28;20439;-60
2022/07/01 10:36:29;;;;;;;13.73;12.53;;;22.70;1.00;;;;;;5032635;28;20435;-59
2022/07/01 10:39:00;;;;;;;13.53;12.20;;;22.70;1.00;;;;;;5032292;28;20469;-60
2022/07/01 10:41:59;;;;;;;13.73;12.30;;;22.50;1.00;;;;;;5032059;28;20854;-60
2022/07/01 10:44:26;;;;;;;13.07;11.63;;;22.40;1.00;;;;;;5031612;28;20455;-61
2022/07/01 10:46:56;;;;;;;12.30;11.17;;;22.60;1.00;;;;;;5032300;28;20493;-60
2022/07/01 10:49:38;;;;;;;13.10;11.87;;;22.90;1.00;;;;;;5048135;28;20430;-60
2022/07/01 10:52:14;;;;;;;11.33;10.40;;;22.80;1.00;;;;;;5029816;28;20438;-60
2022/07/01 10:54:40;;;;;;;12.37;11.30;;;22.80;1.00;;;;;;5032008;28;20449;-60
2022/07/01 10:57:20;;;;;;;12.87;11.60;;;22.90;1.00;;;;;;5032483;28;20513;-60
2022/07/01 11:00:00;;;;;;;11.57;10.57;;;22.80;1.00;;;;;;5032279;28;20868;-59
2022/07/01 11:02:31;;;;;;;12.40;11.30;;;22.80;1.00;;;;;;5031792;28;20496;-61
2022/07/01 11:05:00;;;;;;;11.50;10.60;;;22.60;1.00;;;;;;5031658;28;20421;-59
2022/07/01 11:07:27;;;;;;;12.20;11.20;;;22.60;1.00;;;;;;5031871;28;20933;-60
2022/07/01 11:09:53;;;;;;;12.87;11.87;;;22.60;1.00;;;;;;5035341;28;20439;-59
2022/07/01 11:12:23;;;;;;;11.63;10.43;;;22.70;1.00;;;;;;5031940;28;20467;-60
2022/07/01 11:14:50;;;;;;;11.20;10.10;;;22.50;1.00;;;;;;5031770;28;20443;-61
2022/07/01 11:17:16;;;;;;;10.90;9.90;;;22.20;1.00;;;;;;5031587;28;20432;-59
2022/07/01 11:19:53;;;;;;;11.00;9.90;;;22.20;1.00;;;;;;5031721;28;20442;-60
2022/07/01 11:22:24;;;;;;;10.10;9.30;;;22.20;1.00;;;;;;5032047;28;20455;-61
2022/07/01 11:24:58;;;;;;;9.00;8.30;;;22.10;1.00;;;;;;5031277;28;20435;-60
2022/07/01 11:27:25;;;;;;;8.13;7.33;;;22.00;1.00;;;;;;5031478;28;20467;-59
2022/07/01 11:29:55;;;;;;;7.23;6.73;;;21.70;1.00;;;;;;5031126;28;20418;-59
2022/07/01 11:32:29;;;;;;;7.77;7.13;;;21.60;1.00;;;;;;5031484;28;20467;-60
2022/07/01 11:34:55;;;;;;;6.40;5.93;;;21.40;1.00;;;;;;5034571;28;20447;-60
2022/07/01 11:40:11;;;;;;;8.93;8.13;;;21.00;1.00;;;;;;5051073;28;20534;-60
2022/07/01 11:42:37;;;;;;;10.10;9.30;;;20.80;1.00;;;;;;5049839;28;20417;-60
2022/07/01 11:45:04;;;;;;;11.33;10.40;;;20.80;1.00;;;;;;5047752;28;20991;-59
2022/07/01 11:47:30;;;;;;;12.20;11.07;;;20.80;1.00;;;;;;5033002;28;20522;-59
2022/07/01 11:49:57;;;;;;;13.57;12.57;;;20.80;1.00;;;;;;5031119;28;20443;-59
2022/07/01 11:52:24;;;;;;;11.73;10.70;;;20.60;1.00;;;;;;5030865;28;20468;-59
2022/07/01 11:54:59;;;;;;;12.47;11.30;;;20.40;1.00;;;;;;5030671;28;20443;-58
2022/07/01 11:57:28;;;;;;;10.63;9.63;;;20.40;1.00;;;;;;5031057;28;20450;-59
2022/07/01 11:59:55;;;;;;;9.90;9.10;;;20.40;1.00;;;;;;5030890;28;20452;-60
2022/07/01 12:02:22;;;;;;;10.13;8.90;;;20.40;1.00;;;;;;5031049;28;20462;-60
2022/07/01 12:04:49;;;;;;;9.60;8.73;;;20.50;1.00;;;;;;5047862;28;20797;-60
2022/07/01 12:07:19;;;;;;;8.93;8.33;;;20.40;1.00;;;;;;5050752;28;20466;-60
2022/07/01 12:09:45;;;;;;;9.20;8.40;;;20.00;1.00;;;;;;5050748;28;20413;-60
2022/07/01 12:12:23;;;;;;;10.93;7.90;;;19.70;1.00;;;;;;5049268;28;20558;-59
2022/07/01 12:14:59;;;;;;;8.47;7.50;;;19.60;1.00;;;;;;5035917;28;20176;-59
2022/07/01 12:17:26;;;;;;;8.70;7.30;;;19.60;1.00;;;;;;5050441;28;20438;-59
2022/07/01 12:19:54;;;;;;;9.10;7.93;;;19.60;1.00;;;;;;5050586;28;20435;-59
2022/07/01 12:22:23;;;;;;;8.37;7.77;;;19.60;1.00;;;;;;5029441;28;20435;-59
2022/07/01 12:24:50;;;;;;;10.33;9.53;;;19.60;1.00;;;;;;5030805;28;20746;-60
2022/07/01 12:27:16;;;;;;;10.07;9.27;;;19.60;1.00;;;;;;5030080;28;20570;-60
2022/07/01 12:29:49;;;;;;;10.00;9.00;;;19.40;1.00;;;;;;5042654;28;20434;-59
2022/07/01 12:32:24;;;;;;;9.80;9.00;;;19.50;1.00;;;;;;5040622;28;20463;-59
2022/07/01 12:34:52;;;;;;;10.40;9.50;;;19.60;1.00;;;;;;5030704;28;20943;-60
2022/07/01 12:37:19;;;;;;;8.33;7.73;;;19.60;1.00;;;;;;5029481;28;20925;-59
2022/07/01 12:39:47;;;;;;;10.40;9.37;;;19.60;1.00;;;;;;5034094;28;20439;-59
2022/07/01 12:42:34;;;;;;;9.87;8.07;;;19.60;1.00;;;;;;5038681;28;20434;-60
2022/07/01 12:45:02;;;;;;;8.47;7.77;;;19.70;1.00;;;;;;5050322;28;20430;-61
2022/07/01 12:47:29;;;;;;;8.00;7.30;;;19.70;1.00;;;;;;5049903;28;20426;-59
2022/07/01 12:50:10;;;;;;;7.90;7.30;;;19.70;1.00;;;;;;5048739;28;20453;-59
2022/07/01 12:52:37;;;;;;;6.70;6.03;;;19.80;1.00;;;;;;5049971;28;20455;-59
2022/07/01 12:55:20;;;;;;;5.20;4.70;;;20.10;1.00;;;;;;5050253;28;20496;-59
2022/07/01 12:57:53;;;;;;;5.37;4.90;;;20.10;1.00;;;;;;5050275;28;20416;-59
2022/07/01 13:00:20;;;;;;;5.60;5.07;;;20.20;1.00;;;;;;5049672;28;20736;-59